createdAt,value
2023-03-22T00:00:38.170Z,12.05
2023-03-22T00:03:07.547Z,12.04
2023-03-22T00:05:35.313Z,11.72
2023-03-22T00:08:07.146Z,12.14
2023-03-22T00:10:37.371Z,11.88
2023-03-22T00:13:06.111Z,11.83
2023-03-22T00:15:34.609Z,11.78
2023-03-22T00:18:03.162Z,11.85
2023-03-22T00:20:33.767Z,11.27
2023-03-22T00:23:01.630Z,11.56
2023-03-22T00:25:29.353Z,11.66
2023-03-22T00:27:57.078Z,11.42
2023-03-22T00:30:24.793Z,11.75
2023-03-22T00:32:52.501Z,12.04
2023-03-22T00:35:20.475Z,11.66
2023-03-22T00:37:51.611Z,11.93
2023-03-22T00:40:19.819Z,11.72
2023-03-22T00:42:47.675Z,11.90
2023-03-22T00:45:15.660Z,11.70
2023-03-22T00:47:43.473Z,11.54
2023-03-22T00:50:11.788Z,11.93
2023-03-22T00:52:39.492Z,11.66
2023-03-22T00:55:09.235Z,11.53
2023-03-22T00:57:37.809Z,11.80
2023-03-22T01:00:16.050Z,11.72
2023-03-22T01:02:44.408Z,11.68
2023-03-22T01:05:15.685Z,11.73
2023-03-22T01:07:43.525Z,11.82
2023-03-22T01:10:13.624Z,11.79
2023-03-22T01:12:41.321Z,11.24
2023-03-22T01:15:10.669Z,11.23
2023-03-22T01:17:38.400Z,11.42
2023-03-22T01:20:07.325Z,11.53
2023-03-22T01:22:35.076Z,11.55
2023-03-22T01:25:02.839Z,11.81
2023-03-22T01:27:31.914Z,11.82
2023-03-22T01:29:59.654Z,11.47
2023-03-22T01:32:27.691Z,11.55
2023-03-22T01:34:55.531Z,11.15
2023-03-22T01:37:27.699Z,11.37
2023-03-22T01:39:55.854Z,10.98
2023-03-22T01:42:24.615Z,11.25
2023-03-22T01:45:30.430Z,11.73
2023-03-22T01:48:01.645Z,11.36
2023-03-22T01:50:31.296Z,11.23
2023-03-22T01:53:04.987Z,11.43
2023-03-22T01:55:34.353Z,11.14
2023-03-22T01:58:03.058Z,11.14
2023-03-22T02:00:32.695Z,11.03
2023-03-22T02:03:00.794Z,11.37
2023-03-22T02:05:30.212Z,11.27
2023-03-22T02:07:58.314Z,11.03
2023-03-22T02:10:28.224Z,11.04
2023-03-22T02:13:28.473Z,11.04
2023-03-22T02:16:08.707Z,11.21
2023-03-22T02:18:50.794Z,11.10
2023-03-22T02:21:52.177Z,11.35
2023-03-22T02:24:56.601Z,11.05
2023-03-22T02:27:42.942Z,11.25
2023-03-22T02:30:35.052Z,11.23
2023-03-22T02:33:46.216Z,11.27
2023-03-22T02:36:32.589Z,10.97
2023-03-22T02:39:11.223Z,11.21
2023-03-22T02:41:49.093Z,10.84
2023-03-22T02:44:26.122Z,11.22
2023-03-22T02:47:02.921Z,10.73
2023-03-22T02:49:36.004Z,11.07
2023-03-22T02:52:17.595Z,11.16
2023-03-22T02:54:51.925Z,10.80
2023-03-22T02:57:26.769Z,10.75
2023-03-22T02:59:55.717Z,11.02
2023-03-22T03:02:24.695Z,10.94
2023-03-22T03:04:55.145Z,11.09
2023-03-22T03:07:28.643Z,11.33
2023-03-22T03:09:58.240Z,10.85
2023-03-22T03:12:28.154Z,10.85
2023-03-22T03:14:56.179Z,10.66
2023-03-22T03:17:36.597Z,11.00
2023-03-22T03:20:24.267Z,10.79
2023-03-22T03:23:04.032Z,10.68
2023-03-22T03:25:46.275Z,10.95
2023-03-22T03:28:30.334Z,10.95
2023-03-22T03:31:03.618Z,10.81
2023-03-22T03:33:36.042Z,10.99
2023-03-22T03:36:08.837Z,10.78
2023-03-22T03:38:40.910Z,10.88
2023-03-22T03:41:14.057Z,10.99
2023-03-22T03:43:43.870Z,11.08
2023-03-22T03:46:11.758Z,10.68
2023-03-22T03:48:43.492Z,11.29
2023-03-22T03:51:11.270Z,11.20
2023-03-22T03:53:39.008Z,10.64
2023-03-22T03:56:07.908Z,11.15
2023-03-22T03:58:37.128Z,11.07
2023-03-22T04:01:05.052Z,10.96
2023-03-22T04:03:33.250Z,11.32
2023-03-22T04:06:01.158Z,10.97
2023-03-22T04:08:28.954Z,11.17
2023-03-22T04:10:56.790Z,11.29
2023-03-22T04:13:24.719Z,11.39
2023-03-22T04:15:58.075Z,11.15
2023-03-22T04:18:27.670Z,11.12
2023-03-22T04:20:57.212Z,11.16
2023-03-22T04:23:25.798Z,11.23
2023-03-22T04:25:54.616Z,11.17
2023-03-22T04:28:23.989Z,10.81
2023-03-22T04:30:52.393Z,11.01
2023-03-22T04:33:22.797Z,10.90
2023-03-22T04:35:56.644Z,10.82
2023-03-22T04:38:25.240Z,10.77
2023-03-22T04:40:53.289Z,11.02
2023-03-22T04:43:21.006Z,10.93
2023-03-22T04:45:48.888Z,10.94
2023-03-22T04:48:17.601Z,10.93
2023-03-22T04:50:46.756Z,10.84
2023-03-22T04:53:14.648Z,10.68
2023-03-22T04:55:43.605Z,10.85
2023-03-22T04:58:11.406Z,10.86
2023-03-22T05:00:42.358Z,10.97
2023-03-22T05:03:10.409Z,11.20
2023-03-22T05:05:38.174Z,10.71
2023-03-22T05:08:07.820Z,10.68
2023-03-22T05:10:35.599Z,11.03
2023-03-22T05:13:03.406Z,10.88
2023-03-22T05:15:32.433Z,10.95
2023-03-22T05:18:00.310Z,10.55
2023-03-22T05:20:28.049Z,10.75
2023-03-22T05:22:56.896Z,11.05
2023-03-22T05:25:26.134Z,10.70
2023-03-22T05:27:54.250Z,10.64
2023-03-22T05:30:22.260Z,10.70
2023-03-22T05:32:50.377Z,11.01
2023-03-22T05:35:18.229Z,10.80
2023-03-22T05:37:45.929Z,11.01
2023-03-22T05:40:13.765Z,10.86
2023-03-22T05:42:42.927Z,10.98
2023-03-22T05:45:12.162Z,11.28
2023-03-22T05:47:39.998Z,11.11
2023-03-22T05:50:11.189Z,11.09
2023-03-22T05:52:39.593Z,11.05
2023-03-22T05:55:08.442Z,11.18
2023-03-22T05:57:36.222Z,11.14
2023-03-22T06:00:09.745Z,11.40
2023-03-22T06:02:37.869Z,11.47
2023-03-22T06:05:06.684Z,11.28
2023-03-22T06:07:34.516Z,11.48
2023-03-22T06:10:02.265Z,11.20
2023-03-22T06:12:30.287Z,11.03
2023-03-22T06:14:58.348Z,11.30
2023-03-22T06:17:27.924Z,11.20
2023-03-22T06:19:55.827Z,11.11
2023-03-22T06:22:24.072Z,11.21
2023-03-22T06:24:51.948Z,11.40
2023-03-22T06:27:19.713Z,11.36
2023-03-22T06:29:50.874Z,11.49
2023-03-22T06:32:19.075Z,11.44
2023-03-22T06:34:48.247Z,11.35
2023-03-22T06:37:16.383Z,11.50
2023-03-22T06:39:44.602Z,11.77
2023-03-22T06:42:12.331Z,11.88
2023-03-22T06:44:42.321Z,11.82
2023-03-22T06:47:10.097Z,11.91
2023-03-22T06:49:37.934Z,11.69
2023-03-22T06:52:07.181Z,11.60
2023-03-22T06:54:35.296Z,11.93
2023-03-22T06:57:03.114Z,12.31
2023-03-22T06:59:30.994Z,12.30
2023-03-22T07:01:58.807Z,12.23
2023-03-22T07:04:28.197Z,12.03
2023-03-22T07:06:56.376Z,12.34
2023-03-22T07:09:26.870Z,12.32
2023-03-22T07:11:54.634Z,12.34
2023-03-22T07:14:22.369Z,12.57
2023-03-22T07:16:50.079Z,12.61
2023-03-22T07:19:18.489Z,12.40
2023-03-22T07:21:46.253Z,12.47
2023-03-22T07:24:14.113Z,12.36
2023-03-22T07:26:43.217Z,12.63
2023-03-22T07:29:11.303Z,12.34
2023-03-22T07:31:40.079Z,12.97
2023-03-22T07:34:08.220Z,12.84
2023-03-22T07:36:38.128Z,12.43
2023-03-22T07:39:06.123Z,12.73
2023-03-22T07:41:34.019Z,12.92
2023-03-22T07:44:16.878Z,12.61
2023-03-22T07:46:45.384Z,12.55
2023-03-22T07:49:13.215Z,13.15
2023-03-22T07:51:40.983Z,12.97
2023-03-22T07:54:08.685Z,12.92
2023-03-22T07:56:37.017Z,13.52
2023-03-22T07:59:06.396Z,12.99
2023-03-22T08:01:34.335Z,12.92
2023-03-22T08:04:02.106Z,13.28
2023-03-22T08:06:29.855Z,13.26
2023-03-22T08:08:57.587Z,13.59
2023-03-22T08:11:25.650Z,13.34
2023-03-22T08:13:54.464Z,13.89
2023-03-22T08:16:23.739Z,13.37
2023-03-22T08:18:51.524Z,13.62
2023-03-22T08:21:19.260Z,13.86
2023-03-22T08:23:48.809Z,13.46
2023-03-22T08:26:17.827Z,13.73
2023-03-22T08:28:45.572Z,13.87
2023-03-22T08:31:15.468Z,13.87
2023-03-22T08:33:45.182Z,13.49
2023-03-22T08:36:15.152Z,13.59
2023-03-22T08:38:45.187Z,13.56
2023-03-22T08:41:13.139Z,13.58
2023-03-22T08:43:40.981Z,13.77
2023-03-22T08:46:09.397Z,13.09
2023-03-22T08:48:37.983Z,13.49
2023-03-22T08:51:07.802Z,13.25
2023-03-22T08:53:35.552Z,13.73
2023-03-22T08:56:04.048Z,13.87
2023-03-22T08:58:31.911Z,13.86
2023-03-22T09:00:59.797Z,14.00
2023-03-22T09:03:27.610Z,13.94
2023-03-22T09:05:55.455Z,14.05
2023-03-22T09:08:24.556Z,14.37
2023-03-22T09:10:52.508Z,14.37
2023-03-22T09:13:21.144Z,14.22
2023-03-22T09:15:49.146Z,14.21
2023-03-22T09:18:17.162Z,14.35
2023-03-22T09:20:45.786Z,14.49
2023-03-22T09:23:14.977Z,14.27
2023-03-22T09:25:46.249Z,14.17
2023-03-22T09:28:14.675Z,14.40
2023-03-22T09:30:42.608Z,14.58
2023-03-22T09:33:10.425Z,14.41
2023-03-22T09:35:42.677Z,14.07
2023-03-22T09:38:12.200Z,14.39
2023-03-22T09:40:51.618Z,14.67
2023-03-22T09:43:21.366Z,14.96
2023-03-22T09:45:52.814Z,14.89
2023-03-22T09:48:23.353Z,15.03
2023-03-22T09:50:53.992Z,14.81
2023-03-22T09:53:25.538Z,14.36
2023-03-22T09:56:01.310Z,14.65
2023-03-22T09:58:34.223Z,14.47
2023-03-22T10:01:05.613Z,14.25
2023-03-22T10:03:58.653Z,14.39
2023-03-22T10:06:29.396Z,14.76
2023-03-22T10:09:04.599Z,15.01
2023-03-22T10:11:45.583Z,15.17
2023-03-22T10:14:27.876Z,14.81
2023-03-22T10:16:57.233Z,14.53
2023-03-22T10:19:28.640Z,15.18
2023-03-22T10:21:59.129Z,14.99
2023-03-22T10:24:30.798Z,15.45
2023-03-22T10:27:00.020Z,14.82
2023-03-22T10:29:33.386Z,14.67
2023-03-22T10:32:14.508Z,14.69
2023-03-22T10:34:43.654Z,15.44
2023-03-22T10:37:15.720Z,14.99
2023-03-22T10:39:47.393Z,15.33
2023-03-22T10:42:18.787Z,15.50
2023-03-22T10:44:50.448Z,15.64
2023-03-22T10:47:24.965Z,15.34
2023-03-22T10:49:57.418Z,15.55
2023-03-22T10:52:37.669Z,16.30
2023-03-22T10:55:07.649Z,16.58
2023-03-22T10:57:36.737Z,15.72
2023-03-22T11:00:10.102Z,16.41
2023-03-22T11:02:47.280Z,15.62
2023-03-22T11:05:23.843Z,15.77
2023-03-22T11:07:52.535Z,15.30
2023-03-22T11:10:28.810Z,15.58
2023-03-22T11:13:13.208Z,15.14
2023-03-22T11:15:43.376Z,15.48
2023-03-22T11:18:15.812Z,15.62
2023-03-22T11:20:55.466Z,15.51
2023-03-22T11:23:25.243Z,15.99
2023-03-22T11:25:57.478Z,16.40
2023-03-22T11:28:34.018Z,16.26
2023-03-22T11:31:05.432Z,16.32
2023-03-22T11:33:34.218Z,17.31
2023-03-22T11:36:05.580Z,16.05
2023-03-22T11:38:38.629Z,16.91
2023-03-22T11:41:09.695Z,17.03
2023-03-22T11:43:42.264Z,17.00
2023-03-22T11:46:10.830Z,16.62
2023-03-22T11:48:41.913Z,16.53
2023-03-22T11:51:13.134Z,16.20
2023-03-22T11:53:43.390Z,16.28
2023-03-22T11:56:14.658Z,16.39
2023-03-22T11:59:04.185Z,16.23
2023-03-22T12:01:39.760Z,16.28
2023-03-22T12:04:12.604Z,16.65
2023-03-22T12:06:41.818Z,16.23
2023-03-22T12:09:22.766Z,16.01
2023-03-22T12:11:54.132Z,16.10
2023-03-22T12:14:28.179Z,16.55
2023-03-22T12:17:01.071Z,17.08
2023-03-22T12:19:42.948Z,17.55
2023-03-22T12:22:14.027Z,16.73
2023-03-22T12:24:42.973Z,16.98
2023-03-22T12:27:18.006Z,16.85
2023-03-22T12:29:53.128Z,16.76
2023-03-22T12:32:25.817Z,16.55
2023-03-22T12:35:01.362Z,16.50
2023-03-22T12:37:39.136Z,16.06
2023-03-22T12:40:10.089Z,16.96
2023-03-22T12:42:50.815Z,16.42
2023-03-22T12:45:25.893Z,16.31
2023-03-22T12:48:00.576Z,16.16
2023-03-22T12:50:35.204Z,16.79
2023-03-22T12:53:04.485Z,16.24
2023-03-22T12:55:35.027Z,16.74
2023-03-22T12:58:03.259Z,16.34
2023-03-22T13:00:37.689Z,16.58
2023-03-22T13:03:18.754Z,16.58
2023-03-22T13:05:48.631Z,16.63
2023-03-22T13:08:21.526Z,16.60
2023-03-22T13:10:59.578Z,16.19
2023-03-22T13:13:43.631Z,16.40
2023-03-22T13:16:48.678Z,16.44
2023-03-22T13:19:33.044Z,16.65
2023-03-22T13:22:22.847Z,16.73
2023-03-22T13:25:28.975Z,16.84
2023-03-22T13:27:58.635Z,16.43
2023-03-22T13:30:32.414Z,16.47
2023-03-22T13:33:09.779Z,16.73
2023-03-22T13:35:44.923Z,16.85
2023-03-22T13:38:21.089Z,16.89
2023-03-22T13:40:54.611Z,16.39
2023-03-22T13:43:28.369Z,16.47
2023-03-22T13:46:29.055Z,16.52
2023-03-22T13:49:28.245Z,16.51
2023-03-22T13:51:59.993Z,16.20
2023-03-22T13:54:36.812Z,16.33
2023-03-22T13:57:05.075Z,16.24
2023-03-22T14:00:06.868Z,16.02
2023-03-22T14:02:42.112Z,16.24
2023-03-22T14:05:17.770Z,16.41
2023-03-22T14:07:51.272Z,16.59
2023-03-22T14:10:23.284Z,16.44
2023-03-22T14:12:54.836Z,16.70
2023-03-22T14:15:26.590Z,16.48
2023-03-22T14:18:00.680Z,16.75
2023-03-22T14:20:36.883Z,17.08
